sensor_id;sensor_type;location;lat;lon;timestamp;P1;durP1;ratioP1;P2;durP2;ratioP2
67867;SDS011;54672;46.096;14.470;2023-12-20T00:01:32;64.50;;;24.30;;
67867;SDS011;54672;46.096;14.470;2023-12-20T00:03:57;58.67;;;23.15;;
67867;SDS011;54672;46.096;14.470;2023-12-20T00:06:23;58.10;;;23.02;;
67867;SDS011;54672;46.096;14.470;2023-12-20T00:08:49;65.07;;;26.25;;
67867;SDS011;54672;46.096;14.470;2023-12-20T00:11:14;55.80;;;24.00;;
67867;SDS011;54672;46.096;14.470;2023-12-20T00:13:39;52.80;;;21.75;;
67867;SDS011;54672;46.096;14.470;2023-12-20T00:16:05;53.78;;;22.30;;
67867;SDS011;54672;46.096;14.470;2023-12-20T00:18:30;62.95;;;23.85;;
67867;SDS011;54672;46.096;14.470;2023-12-20T00:20:56;49.55;;;21.52;;
67867;SDS011;54672;46.096;14.470;2023-12-20T00:23:21;48.53;;;20.73;;
67867;SDS011;54672;46.096;14.470;2023-12-20T00:25:48;64.65;;;23.23;;
67867;SDS011;54672;46.096;14.470;2023-12-20T00:28:14;40.47;;;19.83;;
67867;SDS011;54672;46.096;14.470;2023-12-20T00:30:39;52.90;;;19.33;;
67867;SDS011;54672;46.096;14.470;2023-12-20T00:33:04;50.05;;;17.05;;
67867;SDS011;54672;46.096;14.470;2023-12-20T00:35:30;57.90;;;20.63;;
67867;SDS011;54672;46.096;14.470;2023-12-20T00:37:55;52.28;;;21.73;;
67867;SDS011;54672;46.096;14.470;2023-12-20T00:40:21;47.17;;;21.55;;
67867;SDS011;54672;46.096;14.470;2023-12-20T00:42:47;60.92;;;22.30;;
67867;SDS011;54672;46.096;14.470;2023-12-20T00:45:12;59.63;;;22.60;;
67867;SDS011;54672;46.096;14.470;2023-12-20T00:47:39;47.13;;;21.98;;
67867;SDS011;54672;46.096;14.470;2023-12-20T00:50:05;47.92;;;21.65;;
67867;SDS011;54672;46.096;14.470;2023-12-20T00:52:31;49.60;;;22.45;;
67867;SDS011;54672;46.096;14.470;2023-12-20T00:54:58;53.22;;;22.50;;
67867;SDS011;54672;46.096;14.470;2023-12-20T00:57:23;46.08;;;18.83;;
67867;SDS011;54672;46.096;14.470;2023-12-20T00:59:48;61.72;;;21.88;;
67867;SDS011;54672;46.096;14.470;2023-12-20T01:02:14;53.80;;;21.75;;
67867;SDS011;54672;46.096;14.470;2023-12-20T01:04:39;54.95;;;21.83;;
67867;SDS011;54672;46.096;14.470;2023-12-20T01:07:05;49.40;;;19.27;;
67867;SDS011;54672;46.096;14.470;2023-12-20T01:09:30;45.92;;;18.45;;
67867;SDS011;54672;46.096;14.470;2023-12-20T01:11:55;61.75;;;21.30;;
67867;SDS011;54672;46.096;14.470;2023-12-20T01:14:21;50.67;;;18.85;;
67867;SDS011;54672;46.096;14.470;2023-12-20T01:16:46;37.90;;;14.48;;
67867;SDS011;54672;46.096;14.470;2023-12-20T01:19:12;49.85;;;20.00;;
67867;SDS011;54672;46.096;14.470;2023-12-20T01:21:39;48.85;;;19.63;;
67867;SDS011;54672;46.096;14.470;2023-12-20T01:24:04;40.22;;;16.25;;
67867;SDS011;54672;46.096;14.470;2023-12-20T01:26:30;53.95;;;23.40;;
67867;SDS011;54672;46.096;14.470;2023-12-20T01:28:55;61.15;;;25.20;;
67867;SDS011;54672;46.096;14.470;2023-12-20T01:31:21;63.00;;;24.58;;
67867;SDS011;54672;46.096;14.470;2023-12-20T01:33:46;52.33;;;22.15;;
67867;SDS011;54672;46.096;14.470;2023-12-20T01:36:11;56.65;;;23.85;;
67867;SDS011;54672;46.096;14.470;2023-12-20T01:38:38;58.10;;;21.48;;
67867;SDS011;54672;46.096;14.470;2023-12-20T01:41:04;38.75;;;16.80;;
67867;SDS011;54672;46.096;14.470;2023-12-20T01:43:29;37.30;;;12.73;;
67867;SDS011;54672;46.096;14.470;2023-12-20T01:45:55;27.40;;;13.13;;
67867;SDS011;54672;46.096;14.470;2023-12-20T01:48:22;43.65;;;15.40;;
67867;SDS011;54672;46.096;14.470;2023-12-20T01:50:49;46.70;;;17.83;;
67867;SDS011;54672;46.096;14.470;2023-12-20T01:53:15;55.95;;;18.70;;
67867;SDS011;54672;46.096;14.470;2023-12-20T01:55:40;40.38;;;16.23;;
67867;SDS011;54672;46.096;14.470;2023-12-20T01:58:07;36.03;;;16.42;;
67867;SDS011;54672;46.096;14.470;2023-12-20T02:00:33;52.97;;;19.50;;
67867;SDS011;54672;46.096;14.470;2023-12-20T02:03:00;32.30;;;15.13;;
67867;SDS011;54672;46.096;14.470;2023-12-20T02:05:27;32.45;;;14.02;;
67867;SDS011;54672;46.096;14.470;2023-12-20T02:07:53;45.53;;;16.70;;
67867;SDS011;54672;46.096;14.470;2023-12-20T02:10:18;36.65;;;15.80;;
67867;SDS011;54672;46.096;14.470;2023-12-20T02:12:44;35.78;;;16.23;;
67867;SDS011;54672;46.096;14.470;2023-12-20T02:15:09;46.95;;;19.88;;
67867;SDS011;54672;46.096;14.470;2023-12-20T02:17:35;38.47;;;16.17;;
67867;SDS011;54672;46.096;14.470;2023-12-20T02:20:01;39.97;;;16.52;;
67867;SDS011;54672;46.096;14.470;2023-12-20T02:22:27;24.63;;;11.25;;
67867;SDS011;54672;46.096;14.470;2023-12-20T02:24:53;60.28;;;18.58;;
67867;SDS011;54672;46.096;14.470;2023-12-20T02:27:18;42.63;;;18.25;;
67867;SDS011;54672;46.096;14.470;2023-12-20T02:29:45;46.45;;;17.77;;
67867;SDS011;54672;46.096;14.470;2023-12-20T02:32:12;39.15;;;17.17;;
67867;SDS011;54672;46.096;14.470;2023-12-20T02:34:38;45.45;;;19.13;;
67867;SDS011;54672;46.096;14.470;2023-12-20T02:37:03;22.90;;;11.00;;
67867;SDS011;54672;46.096;14.470;2023-12-20T02:39:30;26.33;;;11.93;;
67867;SDS011;54672;46.096;14.470;2023-12-20T02:41:55;16.27;;;9.25;;
67867;SDS011;54672;46.096;14.470;2023-12-20T02:44:21;30.02;;;14.82;;
67867;SDS011;54672;46.096;14.470;2023-12-20T02:46:46;34.13;;;15.60;;
67867;SDS011;54672;46.096;14.470;2023-12-20T02:49:12;46.15;;;16.60;;
67867;SDS011;54672;46.096;14.470;2023-12-20T02:51:37;35.33;;;14.80;;
67867;SDS011;54672;46.096;14.470;2023-12-20T02:54:05;28.55;;;13.48;;
67867;SDS011;54672;46.096;14.470;2023-12-20T02:56:34;24.38;;;11.20;;
67867;SDS011;54672;46.096;14.470;2023-12-20T02:58:59;36.55;;;14.38;;
67867;SDS011;54672;46.096;14.470;2023-12-20T03:01:25;18.95;;;9.73;;
67867;SDS011;54672;46.096;14.470;2023-12-20T03:03:51;27.75;;;13.32;;
67867;SDS011;54672;46.096;14.470;2023-12-20T03:06:17;39.58;;;17.15;;
67867;SDS011;54672;46.096;14.470;2023-12-20T03:08:43;28.55;;;14.73;;
67867;SDS011;54672;46.096;14.470;2023-12-20T03:11:09;33.33;;;15.75;;
67867;SDS011;54672;46.096;14.470;2023-12-20T03:13:34;36.83;;;15.48;;
67867;SDS011;54672;46.096;14.470;2023-12-20T03:16:00;37.42;;;17.88;;
67867;SDS011;54672;46.096;14.470;2023-12-20T03:18:25;29.33;;;13.65;;
67867;SDS011;54672;46.096;14.470;2023-12-20T03:20:53;35.63;;;15.77;;
67867;SDS011;54672;46.096;14.470;2023-12-20T03:23:18;40.70;;;16.83;;
67867;SDS011;54672;46.096;14.470;2023-12-20T03:25:43;34.75;;;16.60;;
67867;SDS011;54672;46.096;14.470;2023-12-20T03:28:09;39.95;;;17.60;;
67867;SDS011;54672;46.096;14.470;2023-12-20T03:30:34;37.60;;;16.02;;
67867;SDS011;54672;46.096;14.470;2023-12-20T03:33:00;39.05;;;16.85;;
67867;SDS011;54672;46.096;14.470;2023-12-20T03:35:25;36.72;;;18.13;;
67867;SDS011;54672;46.096;14.470;2023-12-20T03:37:51;38.13;;;18.13;;
67867;SDS011;54672;46.096;14.470;2023-12-20T03:40:16;44.13;;;16.27;;
67867;SDS011;54672;46.096;14.470;2023-12-20T03:42:41;45.78;;;17.40;;
67867;SDS011;54672;46.096;14.470;2023-12-20T03:45:07;42.38;;;19.25;;
67867;SDS011;54672;46.096;14.470;2023-12-20T03:47:33;40.15;;;17.42;;
67867;SDS011;54672;46.096;14.470;2023-12-20T03:49:58;43.85;;;18.67;;
67867;SDS011;54672;46.096;14.470;2023-12-20T03:52:24;38.00;;;18.88;;
67867;SDS011;54672;46.096;14.470;2023-12-20T03:54:49;41.47;;;17.70;;
67867;SDS011;54672;46.096;14.470;2023-12-20T03:57:14;42.70;;;18.98;;
67867;SDS011;54672;46.096;14.470;2023-12-20T03:59:40;44.92;;;19.60;;
67867;SDS011;54672;46.096;14.470;2023-12-20T04:02:05;40.35;;;17.58;;
67867;SDS011;54672;46.096;14.470;2023-12-20T04:04:31;46.80;;;18.73;;
67867;SDS011;54672;46.096;14.470;2023-12-20T04:06:56;41.55;;;17.55;;
67867;SDS011;54672;46.096;14.470;2023-12-20T04:09:22;38.10;;;17.27;;
67867;SDS011;54672;46.096;14.470;2023-12-20T04:11:47;38.53;;;17.90;;
67867;SDS011;54672;46.096;14.470;2023-12-20T04:14:12;38.47;;;15.35;;
67867;SDS011;54672;46.096;14.470;2023-12-20T04:16:38;40.38;;;16.42;;
67867;SDS011;54672;46.096;14.470;2023-12-20T04:19:04;39.58;;;16.98;;
67867;SDS011;54672;46.096;14.470;2023-12-20T04:21:30;57.05;;;17.20;;
67867;SDS011;54672;46.096;14.470;2023-12-20T04:23:56;52.05;;;17.77;;
67867;SDS011;54672;46.096;14.470;2023-12-20T04:26:21;42.97;;;17.00;;
67867;SDS011;54672;46.096;14.470;2023-12-20T04:28:47;48.20;;;16.63;;
67867;SDS011;54672;46.096;14.470;2023-12-20T04:31:12;55.55;;;16.95;;
67867;SDS011;54672;46.096;14.470;2023-12-20T04:33:38;37.10;;;16.23;;
67867;SDS011;54672;46.096;14.470;2023-12-20T04:36:04;37.65;;;16.88;;
67867;SDS011;54672;46.096;14.470;2023-12-20T04:38:29;35.50;;;16.83;;
67867;SDS011;54672;46.096;14.470;2023-12-20T04:40:55;39.10;;;17.73;;
67867;SDS011;54672;46.096;14.470;2023-12-20T04:43:20;45.13;;;16.52;;
67867;SDS011;54672;46.096;14.470;2023-12-20T04:45:45;43.65;;;16.70;;
67867;SDS011;54672;46.096;14.470;2023-12-20T04:48:11;36.53;;;17.13;;
67867;SDS011;54672;46.096;14.470;2023-12-20T04:50:37;34.33;;;17.10;;
67867;SDS011;54672;46.096;14.470;2023-12-20T04:53:02;36.67;;;16.73;;
67867;SDS011;54672;46.096;14.470;2023-12-20T04:55:28;34.63;;;16.60;;
67867;SDS011;54672;46.096;14.470;2023-12-20T04:57:53;34.00;;;16.45;;
67867;SDS011;54672;46.096;14.470;2023-12-20T05:00:19;38.63;;;17.80;;
67867;SDS011;54672;46.096;14.470;2023-12-20T05:02:45;35.05;;;15.45;;
67867;SDS011;54672;46.096;14.470;2023-12-20T05:05:10;39.20;;;16.02;;
67867;SDS011;54672;46.096;14.470;2023-12-20T05:07:36;29.30;;;13.48;;
67867;SDS011;54672;46.096;14.470;2023-12-20T05:10:02;40.85;;;15.88;;
67867;SDS011;54672;46.096;14.470;2023-12-20T05:12:29;45.28;;;15.40;;
67867;SDS011;54672;46.096;14.470;2023-12-20T05:14:55;32.78;;;15.18;;
67867;SDS011;54672;46.096;14.470;2023-12-20T05:17:20;42.95;;;17.13;;
67867;SDS011;54672;46.096;14.470;2023-12-20T05:19:46;57.22;;;17.05;;
67867;SDS011;54672;46.096;14.470;2023-12-20T05:22:11;43.55;;;16.98;;
67867;SDS011;54672;46.096;14.470;2023-12-20T05:24:37;37.05;;;16.30;;
67867;SDS011;54672;46.096;14.470;2023-12-20T05:27:02;43.78;;;16.63;;
67867;SDS011;54672;46.096;14.470;2023-12-20T05:29:28;47.33;;;17.63;;
67867;SDS011;54672;46.096;14.470;2023-12-20T05:31:53;53.75;;;16.95;;
67867;SDS011;54672;46.096;14.470;2023-12-20T05:34:19;44.08;;;16.50;;
67867;SDS011;54672;46.096;14.470;2023-12-20T05:36:45;34.25;;;14.68;;
67867;SDS011;54672;46.096;14.470;2023-12-20T05:39:10;67.68;;;18.65;;
67867;SDS011;54672;46.096;14.470;2023-12-20T05:41:36;39.30;;;17.50;;
67867;SDS011;54672;46.096;14.470;2023-12-20T05:44:01;49.10;;;18.33;;
67867;SDS011;54672;46.096;14.470;2023-12-20T05:46:27;42.95;;;16.45;;
67867;SDS011;54672;46.096;14.470;2023-12-20T05:48:52;33.03;;;14.63;;
67867;SDS011;54672;46.096;14.470;2023-12-20T05:51:18;36.85;;;14.40;;
67867;SDS011;54672;46.096;14.470;2023-12-20T05:53:44;40.33;;;15.55;;
67867;SDS011;54672;46.096;14.470;2023-12-20T05:56:10;17.88;;;9.57;;
67867;SDS011;54672;46.096;14.470;2023-12-20T05:58:35;24.85;;;11.20;;
67867;SDS011;54672;46.096;14.470;2023-12-20T06:01:04;19.83;;;10.15;;
67867;SDS011;54672;46.096;14.470;2023-12-20T06:03:30;50.63;;;17.92;;
67867;SDS011;54672;46.096;14.470;2023-12-20T06:05:56;37.25;;;17.65;;
67867;SDS011;54672;46.096;14.470;2023-12-20T06:08:21;41.58;;;14.70;;
67867;SDS011;54672;46.096;14.470;2023-12-20T06:10:47;36.60;;;15.02;;
67867;SDS011;54672;46.096;14.470;2023-12-20T06:13:12;39.72;;;15.20;;
67867;SDS011;54672;46.096;14.470;2023-12-20T06:15:39;29.48;;;12.20;;
67867;SDS011;54672;46.096;14.470;2023-12-20T06:18:05;24.38;;;9.73;;
67867;SDS011;54672;46.096;14.470;2023-12-20T06:20:31;28.38;;;12.13;;
67867;SDS011;54672;46.096;14.470;2023-12-20T06:22:56;39.13;;;18.00;;
67867;SDS011;54672;46.096;14.470;2023-12-20T06:25:22;45.40;;;15.75;;
67867;SDS011;54672;46.096;14.470;2023-12-20T06:27:47;34.20;;;14.05;;
67867;SDS011;54672;46.096;14.470;2023-12-20T06:30:13;33.85;;;12.65;;
67867;SDS011;54672;46.096;14.470;2023-12-20T06:32:38;34.83;;;15.70;;
67867;SDS011;54672;46.096;14.470;2023-12-20T06:35:04;23.75;;;11.38;;
67867;SDS011;54672;46.096;14.470;2023-12-20T06:37:30;33.15;;;15.10;;
67867;SDS011;54672;46.096;14.470;2023-12-20T06:39:56;33.80;;;14.43;;
67867;SDS011;54672;46.096;14.470;2023-12-20T06:42:22;39.90;;;16.40;;
67867;SDS011;54672;46.096;14.470;2023-12-20T06:44:47;33.70;;;13.90;;
67867;SDS011;54672;46.096;14.470;2023-12-20T06:47:13;38.72;;;16.40;;
67867;SDS011;54672;46.096;14.470;2023-12-20T06:49:39;39.38;;;17.17;;
67867;SDS011;54672;46.096;14.470;2023-12-20T06:52:05;33.65;;;17.40;;
67867;SDS011;54672;46.096;14.470;2023-12-20T06:54:30;41.35;;;17.20;;
67867;SDS011;54672;46.096;14.470;2023-12-20T06:56:56;31.13;;;16.13;;
67867;SDS011;54672;46.096;14.470;2023-12-20T06:59:21;39.70;;;16.35;;
67867;SDS011;54672;46.096;14.470;2023-12-20T07:01:47;46.47;;;17.48;;
67867;SDS011;54672;46.096;14.470;2023-12-20T07:04:14;33.88;;;15.70;;
67867;SDS011;54672;46.096;14.470;2023-12-20T07:06:39;45.78;;;18.00;;
67867;SDS011;54672;46.096;14.470;2023-12-20T07:09:04;42.60;;;18.50;;
67867;SDS011;54672;46.096;14.470;2023-12-20T07:11:30;39.90;;;17.15;;
67867;SDS011;54672;46.096;14.470;2023-12-20T07:13:55;38.25;;;15.02;;
67867;SDS011;54672;46.096;14.470;2023-12-20T07:16:21;38.88;;;15.50;;
67867;SDS011;54672;46.096;14.470;2023-12-20T07:18:47;45.03;;;17.73;;
67867;SDS011;54672;46.096;14.470;2023-12-20T07:21:13;50.47;;;17.58;;
67867;SDS011;54672;46.096;14.470;2023-12-20T07:23:38;45.08;;;18.40;;
67867;SDS011;54672;46.096;14.470;2023-12-20T07:26:03;37.40;;;16.83;;
67867;SDS011;54672;46.096;14.470;2023-12-20T07:28:29;50.70;;;20.75;;
67867;SDS011;54672;46.096;14.470;2023-12-20T07:30:54;56.63;;;20.35;;
67867;SDS011;54672;46.096;14.470;2023-12-20T07:33:20;48.10;;;18.90;;
67867;SDS011;54672;46.096;14.470;2023-12-20T07:35:45;46.58;;;16.33;;
67867;SDS011;54672;46.096;14.470;2023-12-20T07:38:11;46.42;;;18.73;;
67867;SDS011;54672;46.096;14.470;2023-12-20T07:40:37;42.40;;;16.50;;
67867;SDS011;54672;46.096;14.470;2023-12-20T07:43:03;69.93;;;20.05;;
67867;SDS011;54672;46.096;14.470;2023-12-20T07:45:29;49.85;;;16.00;;
67867;SDS011;54672;46.096;14.470;2023-12-20T07:47:54;50.67;;;20.80;;
67867;SDS011;54672;46.096;14.470;2023-12-20T07:50:20;62.25;;;19.10;;
67867;SDS011;54672;46.096;14.470;2023-12-20T07:52:45;79.15;;;24.00;;
67867;SDS011;54672;46.096;14.470;2023-12-20T07:55:11;60.08;;;22.60;;
67867;SDS011;54672;46.096;14.470;2023-12-20T07:57:36;49.17;;;21.23;;
67867;SDS011;54672;46.096;14.470;2023-12-20T08:00:01;45.72;;;19.52;;
67867;SDS011;54672;46.096;14.470;2023-12-20T08:02:28;51.42;;;19.25;;
67867;SDS011;54672;46.096;14.470;2023-12-20T08:04:54;47.58;;;19.25;;
67867;SDS011;54672;46.096;14.470;2023-12-20T08:07:19;52.78;;;18.42;;
67867;SDS011;54672;46.096;14.470;2023-12-20T08:09:45;43.33;;;17.38;;
67867;SDS011;54672;46.096;14.470;2023-12-20T08:12:10;38.35;;;17.10;;
67867;SDS011;54672;46.096;14.470;2023-12-20T08:14:36;47.53;;;19.27;;
67867;SDS011;54672;46.096;14.470;2023-12-20T08:17:02;41.50;;;17.85;;
67867;SDS011;54672;46.096;14.470;2023-12-20T08:19:27;53.40;;;17.08;;
67867;SDS011;54672;46.096;14.470;2023-12-20T08:21:53;30.90;;;15.00;;
67867;SDS011;54672;46.096;14.470;2023-12-20T08:24:18;48.30;;;18.65;;
67867;SDS011;54672;46.096;14.470;2023-12-20T08:26:44;52.42;;;22.77;;
67867;SDS011;54672;46.096;14.470;2023-12-20T08:29:12;50.42;;;21.40;;
67867;SDS011;54672;46.096;14.470;2023-12-20T08:31:38;50.30;;;20.92;;
67867;SDS011;54672;46.096;14.470;2023-12-20T08:34:04;72.50;;;28.95;;
67867;SDS011;54672;46.096;14.470;2023-12-20T08:36:29;56.40;;;23.95;;
67867;SDS011;54672;46.096;14.470;2023-12-20T08:38:55;51.58;;;22.02;;
67867;SDS011;54672;46.096;14.470;2023-12-20T08:41:20;40.17;;;17.35;;
67867;SDS011;54672;46.096;14.470;2023-12-20T08:43:46;45.00;;;20.90;;
67867;SDS011;54672;46.096;14.470;2023-12-20T08:46:11;51.28;;;21.08;;
67867;SDS011;54672;46.096;14.470;2023-12-20T08:48:37;52.83;;;20.83;;
67867;SDS011;54672;46.096;14.470;2023-12-20T08:51:03;39.65;;;17.58;;
67867;SDS011;54672;46.096;14.470;2023-12-20T08:53:29;50.60;;;21.67;;
67867;SDS011;54672;46.096;14.470;2023-12-20T08:55:54;44.15;;;21.25;;
67867;SDS011;54672;46.096;14.470;2023-12-20T08:58:20;53.72;;;21.60;;
67867;SDS011;54672;46.096;14.470;2023-12-20T09:00:45;48.10;;;19.55;;
67867;SDS011;54672;46.096;14.470;2023-12-20T09:03:10;53.63;;;20.70;;
67867;SDS011;54672;46.096;14.470;2023-12-20T09:05:36;47.05;;;20.92;;
67867;SDS011;54672;46.096;14.470;2023-12-20T09:08:01;50.10;;;21.50;;
67867;SDS011;54672;46.096;14.470;2023-12-20T09:10:27;47.03;;;20.63;;
67867;SDS011;54672;46.096;14.470;2023-12-20T09:12:52;49.53;;;21.27;;
67867;SDS011;54672;46.096;14.470;2023-12-20T09:15:25;46.50;;;21.05;;
67867;SDS011;54672;46.096;14.470;2023-12-20T09:17:52;47.08;;;19.90;;
67867;SDS011;54672;46.096;14.470;2023-12-20T09:20:18;50.42;;;21.40;;
67867;SDS011;54672;46.096;14.470;2023-12-20T09:22:43;41.55;;;20.17;;
67867;SDS011;54672;46.096;14.470;2023-12-20T09:25:09;44.67;;;19.95;;
67867;SDS011;54672;46.096;14.470;2023-12-20T09:27:36;53.47;;;21.27;;
67867;SDS011;54672;46.096;14.470;2023-12-20T09:30:02;52.33;;;21.73;;
67867;SDS011;54672;46.096;14.470;2023-12-20T09:32:27;48.63;;;20.40;;
67867;SDS011;54672;46.096;14.470;2023-12-20T09:34:54;51.17;;;20.77;;
67867;SDS011;54672;46.096;14.470;2023-12-20T09:37:20;50.47;;;22.73;;
67867;SDS011;54672;46.096;14.470;2023-12-20T09:39:45;52.13;;;21.77;;
67867;SDS011;54672;46.096;14.470;2023-12-20T09:42:11;48.53;;;21.85;;
67867;SDS011;54672;46.096;14.470;2023-12-20T09:44:38;42.65;;;20.85;;
67867;SDS011;54672;46.096;14.470;2023-12-20T09:47:07;54.08;;;23.15;;
67867;SDS011;54672;46.096;14.470;2023-12-20T09:49:33;48.80;;;22.50;;
67867;SDS011;54672;46.096;14.470;2023-12-20T09:51:59;55.97;;;25.30;;
67867;SDS011;54672;46.096;14.470;2023-12-20T09:54:25;60.13;;;25.92;;
67867;SDS011;54672;46.096;14.470;2023-12-20T09:56:53;62.00;;;29.38;;
67867;SDS011;54672;46.096;14.470;2023-12-20T09:59:18;52.90;;;23.90;;
67867;SDS011;54672;46.096;14.470;2023-12-20T10:01:44;61.70;;;27.65;;
67867;SDS011;54672;46.096;14.470;2023-12-20T10:04:10;58.10;;;26.00;;
67867;SDS011;54672;46.096;14.470;2023-12-20T10:06:41;44.92;;;21.33;;
67867;SDS011;54672;46.096;14.470;2023-12-20T10:09:08;49.30;;;21.15;;
67867;SDS011;54672;46.096;14.470;2023-12-20T10:11:35;48.83;;;20.65;;
67867;SDS011;54672;46.096;14.470;2023-12-20T10:14:02;35.08;;;16.00;;
67867;SDS011;54672;46.096;14.470;2023-12-20T10:16:28;42.92;;;18.75;;
67867;SDS011;54672;46.096;14.470;2023-12-20T10:18:55;41.13;;;18.60;;
67867;SDS011;54672;46.096;14.470;2023-12-20T10:21:24;50.50;;;22.17;;
67867;SDS011;54672;46.096;14.470;2023-12-20T10:23:54;30.17;;;16.00;;
67867;SDS011;54672;46.096;14.470;2023-12-20T10:26:22;35.33;;;17.85;;
67867;SDS011;54672;46.096;14.470;2023-12-20T10:28:59;45.88;;;21.95;;
67867;SDS011;54672;46.096;14.470;2023-12-20T10:31:34;46.13;;;21.85;;
67867;SDS011;54672;46.096;14.470;2023-12-20T10:34:00;42.13;;;20.25;;
67867;SDS011;54672;46.096;14.470;2023-12-20T10:36:31;52.25;;;21.35;;
67867;SDS011;54672;46.096;14.470;2023-12-20T10:38:57;51.58;;;22.88;;
67867;SDS011;54672;46.096;14.470;2023-12-20T10:41:28;46.97;;;22.42;;
67867;SDS011;54672;46.096;14.470;2023-12-20T10:44:01;41.97;;;20.67;;
67867;SDS011;54672;46.096;14.470;2023-12-20T10:46:30;36.15;;;17.33;;
67867;SDS011;54672;46.096;14.470;2023-12-20T10:48:57;40.67;;;19.55;;
67867;SDS011;54672;46.096;14.470;2023-12-20T10:51:23;37.78;;;17.60;;
67867;SDS011;54672;46.096;14.470;2023-12-20T10:53:51;42.55;;;19.02;;
67867;SDS011;54672;46.096;14.470;2023-12-20T10:56:18;38.50;;;17.85;;
67867;SDS011;54672;46.096;14.470;2023-12-20T10:58:47;36.60;;;17.05;;
67867;SDS011;54672;46.096;14.470;2023-12-20T11:01:14;33.78;;;17.42;;
67867;SDS011;54672;46.096;14.470;2023-12-20T11:03:43;40.13;;;18.20;;
67867;SDS011;54672;46.096;14.470;2023-12-20T11:16:42;33.83;;;16.27;;
67867;SDS011;54672;46.096;14.470;2023-12-20T11:19:07;39.28;;;17.25;;
67867;SDS011;54672;46.096;14.470;2023-12-20T11:21:33;39.03;;;17.98;;
67867;SDS011;54672;46.096;14.470;2023-12-20T11:23:59;35.08;;;17.25;;
67867;SDS011;54672;46.096;14.470;2023-12-20T11:26:28;38.28;;;19.13;;
67867;SDS011;54672;46.096;14.470;2023-12-20T11:29:05;38.55;;;17.15;;
67867;SDS011;54672;46.096;14.470;2023-12-20T11:32:02;40.70;;;18.77;;
67867;SDS011;54672;46.096;14.470;2023-12-20T11:34:48;42.83;;;19.23;;
67867;SDS011;54672;46.096;14.470;2023-12-20T11:37:13;36.17;;;17.63;;
67867;SDS011;54672;46.096;14.470;2023-12-20T11:39:39;37.30;;;17.27;;
67867;SDS011;54672;46.096;14.470;2023-12-20T11:42:04;39.85;;;18.65;;
67867;SDS011;54672;46.096;14.470;2023-12-20T11:44:31;34.55;;;15.88;;
67867;SDS011;54672;46.096;14.470;2023-12-20T11:46:57;37.05;;;16.13;;
67867;SDS011;54672;46.096;14.470;2023-12-20T11:49:23;33.47;;;16.40;;
67867;SDS011;54672;46.096;14.470;2023-12-20T11:51:49;38.40;;;17.10;;
67867;SDS011;54672;46.096;14.470;2023-12-20T11:54:15;41.45;;;16.88;;
67867;SDS011;54672;46.096;14.470;2023-12-20T11:56:41;33.92;;;17.25;;
67867;SDS011;54672;46.096;14.470;2023-12-20T11:59:07;31.55;;;16.45;;
67867;SDS011;54672;46.096;14.470;2023-12-20T12:01:33;56.05;;;29.05;;
67867;SDS011;54672;46.096;14.470;2023-12-20T12:04:03;57.78;;;31.95;;
67867;SDS011;54672;46.096;14.470;2023-12-20T12:06:31;61.20;;;32.13;;
67867;SDS011;54672;46.096;14.470;2023-12-20T12:08:57;62.10;;;33.05;;
67867;SDS011;54672;46.096;14.470;2023-12-20T12:11:23;57.97;;;30.77;;
67867;SDS011;54672;46.096;14.470;2023-12-20T12:13:49;50.58;;;25.40;;
67867;SDS011;54672;46.096;14.470;2023-12-20T12:16:17;55.35;;;26.05;;
67867;SDS011;54672;46.096;14.470;2023-12-20T12:18:46;52.05;;;24.42;;
67867;SDS011;54672;46.096;14.470;2023-12-20T12:21:18;50.97;;;25.88;;
67867;SDS011;54672;46.096;14.470;2023-12-20T12:23:45;50.75;;;23.20;;
67867;SDS011;54672;46.096;14.470;2023-12-20T12:26:11;48.63;;;24.60;;
67867;SDS011;54672;46.096;14.470;2023-12-20T12:28:37;55.92;;;24.83;;
67867;SDS011;54672;46.096;14.470;2023-12-20T12:31:05;43.92;;;22.25;;
67867;SDS011;54672;46.096;14.470;2023-12-20T12:33:31;50.05;;;24.67;;
67867;SDS011;54672;46.096;14.470;2023-12-20T12:35:56;47.42;;;21.63;;
67867;SDS011;54672;46.096;14.470;2023-12-20T12:38:22;51.97;;;23.90;;
67867;SDS011;54672;46.096;14.470;2023-12-20T12:40:49;51.13;;;23.40;;
67867;SDS011;54672;46.096;14.470;2023-12-20T12:43:15;46.78;;;22.60;;
67867;SDS011;54672;46.096;14.470;2023-12-20T12:45:40;44.70;;;21.13;;
67867;SDS011;54672;46.096;14.470;2023-12-20T12:48:06;42.45;;;19.45;;
67867;SDS011;54672;46.096;14.470;2023-12-20T12:50:31;40.85;;;19.95;;
67867;SDS011;54672;46.096;14.470;2023-12-20T12:52:57;38.03;;;18.83;;
67867;SDS011;54672;46.096;14.470;2023-12-20T12:55:22;44.85;;;20.13;;
67867;SDS011;54672;46.096;14.470;2023-12-20T12:57:48;48.90;;;20.48;;
67867;SDS011;54672;46.096;14.470;2023-12-20T13:00:13;33.72;;;17.20;;
67867;SDS011;54672;46.096;14.470;2023-12-20T13:02:39;46.30;;;22.23;;
67867;SDS011;54672;46.096;14.470;2023-12-20T13:05:07;42.42;;;21.33;;
67867;SDS011;54672;46.096;14.470;2023-12-20T13:07:33;47.42;;;21.95;;
67867;SDS011;54672;46.096;14.470;2023-12-20T13:09:59;40.85;;;20.75;;
67867;SDS011;54672;46.096;14.470;2023-12-20T13:12:25;46.22;;;23.52;;
67867;SDS011;54672;46.096;14.470;2023-12-20T13:14:51;44.88;;;22.92;;
67867;SDS011;54672;46.096;14.470;2023-12-20T13:17:16;43.13;;;20.65;;
67867;SDS011;54672;46.096;14.470;2023-12-20T13:19:41;50.25;;;23.70;;
67867;SDS011;54672;46.096;14.470;2023-12-20T13:22:07;49.08;;;21.88;;
67867;SDS011;54672;46.096;14.470;2023-12-20T13:24:32;50.75;;;22.35;;
67867;SDS011;54672;46.096;14.470;2023-12-20T13:26:58;46.63;;;21.92;;
67867;SDS011;54672;46.096;14.470;2023-12-20T13:29:23;43.47;;;21.98;;
67867;SDS011;54672;46.096;14.470;2023-12-20T13:31:52;44.33;;;20.08;;
67867;SDS011;54672;46.096;14.470;2023-12-20T13:34:17;49.33;;;21.83;;
67867;SDS011;54672;46.096;14.470;2023-12-20T13:36:43;38.63;;;20.83;;
67867;SDS011;54672;46.096;14.470;2023-12-20T13:39:13;43.03;;;19.27;;
67867;SDS011;54672;46.096;14.470;2023-12-20T13:41:39;43.78;;;19.77;;
67867;SDS011;54672;46.096;14.470;2023-12-20T13:44:04;31.75;;;15.70;;
67867;SDS011;54672;46.096;14.470;2023-12-20T13:46:30;52.45;;;24.40;;
67867;SDS011;54672;46.096;14.470;2023-12-20T13:48:56;51.45;;;25.42;;
67867;SDS011;54672;46.096;14.470;2023-12-20T13:51:21;48.75;;;22.45;;
67867;SDS011;54672;46.096;14.470;2023-12-20T13:53:47;51.00;;;24.45;;
67867;SDS011;54672;46.096;14.470;2023-12-20T13:56:13;50.30;;;23.30;;
67867;SDS011;54672;46.096;14.470;2023-12-20T13:58:39;46.35;;;23.90;;
67867;SDS011;54672;46.096;14.470;2023-12-20T14:01:06;40.13;;;17.35;;
67867;SDS011;54672;46.096;14.470;2023-12-20T14:03:32;38.72;;;19.83;;
67867;SDS011;54672;46.096;14.470;2023-12-20T14:05:58;52.22;;;20.42;;
67867;SDS011;54672;46.096;14.470;2023-12-20T14:08:25;34.80;;;17.38;;
67867;SDS011;54672;46.096;14.470;2023-12-20T14:10:52;36.13;;;18.20;;
67867;SDS011;54672;46.096;14.470;2023-12-20T14:13:17;34.83;;;16.80;;